Time;durP1;ratioP1;P1;durP2;ratioP2;P2;SDS_P1;SDS_P2;PMS_P1;PMS_P2;Temp;Humidity;BMP_temperature;BMP_pressure;BME280_temperature;BME280_humidity;BME280_pressure;Samples;Min_cycle;Max_cycle;Signal;HPM_P1;HPM_P2
2023/06/04 00:02:23;;;;;;;;;;;;;;;21.99;45.61;102044.09;5056573;28;19917;-56
2023/06/04 00:04:48;;;;;;;;;;;;;;;21.78;46.01;102043.69;5060215;28;19952;-54
2023/06/04 00:07:13;;;;;;;;;;;;;;;21.86;46.09;102044.41;5056090;28;19924;-55
2023/06/04 00:09:39;;;;;;;;;;;;;;;21.89;46.10;102044.72;5057846;28;20003;-54
2023/06/04 00:12:05;;;;;;;;;;;;;;;21.88;45.97;102047.69;5056230;28;19917;-54
2023/06/04 00:14:31;;;;;;;;;;;;;;;21.65;46.80;102040.41;5038576;28;19977;-56
2023/06/04 00:16:56;;;;;;;;;;;;;;;21.77;46.72;102039.31;5057240;28;19913;-53
2023/06/04 00:19:22;;;;;;;;;;;;;;;21.56;47.20;102038.06;5055893;28;19913;-55
2023/06/04 00:21:47;;;;;;;;;;;;;;;21.32;47.66;102039.97;5056846;28;19921;-53
2023/06/04 00:24:13;;;;;;;;;;;;;;;21.49;47.13;102045.53;5059243;28;19927;-53
2023/06/04 00:26:38;;;;;;;;;;;;;;;21.22;47.61;102042.50;5055725;28;20308;-51
2023/06/04 00:29:04;;;;;;;;;;;;;;;21.13;48.41;102048.31;5058450;28;19913;-53
2023/06/04 00:31:29;;;;;;;;;;;;;;;21.10;48.63;102039.78;5036396;28;19913;-53
2023/06/04 00:33:55;;;;;;;;;;;;;;;21.10;48.38;102045.22;5059563;28;19917;-53
2023/06/04 00:36:20;;;;;;;;;;;;;;;20.86;48.89;102045.22;5055367;28;19923;-56
2023/06/04 00:38:46;;;;;;;;;;;;;;;20.98;49.07;102046.03;5037874;28;19913;-50
2023/06/04 00:41:11;;;;;;;;;;;;;;;20.93;48.89;102048.63;5041073;28;19923;-51
2023/06/04 00:43:37;;;;;;;;;;;;;;;20.74;49.52;102051.44;5058038;28;19913;-58
2023/06/04 00:46:03;;;;;;;;;;;;;;;20.78;49.69;102044.47;5060070;28;19917;-53
2023/06/04 00:48:30;;;;;;;;;;;;;;;20.78;49.34;102044.47;5037980;28;19912;-55
2023/06/04 00:50:56;;;;;;;;;;;;;;;20.75;49.43;102036.78;5036269;28;19919;-56
2023/06/04 00:53:22;;;;;;;;;;;;;;;20.60;49.94;102034.50;5040348;28;19925;-54
2023/06/04 00:55:48;;;;;;;;;;;;;;;20.70;49.90;102039.38;5058930;28;19943;-54
2023/06/04 00:58:15;;;;;;;;;;;;;;;20.65;49.96;102036.53;5059975;28;19917;-55
2023/06/04 01:00:42;;;;;;;;;;;;;;;20.72;49.62;102042.69;5021497;28;19919;-57
2023/06/04 01:03:11;;;;;;;;;;;;;;;20.61;49.73;102041.59;5055195;28;19940;-56
2023/06/04 01:05:59;;;;;;;;;;;;;;;20.53;50.04;102036.53;5054948;28;19920;-54
2023/06/04 01:08:26;;;;;;;;;;;;;;;20.51;50.07;102040.53;5056054;28;19913;-56
2023/06/04 01:10:52;;;;;;;;;;;;;;;20.49;50.13;102046.22;5037189;28;19932;-55
2023/06/04 01:13:18;;;;;;;;;;;;;;;20.52;49.81;102047.59;5057460;28;19923;-53
2023/06/04 01:15:44;;;;;;;;;;;;;;;20.33;50.24;102036.84;5041945;28;19913;-51
2023/06/04 01:18:09;;;;;;;;;;;;;;;20.46;49.77;102039.34;5037510;28;19917;-54
2023/06/04 01:20:41;;;;;;;;;;;;;;;20.38;49.99;102030.69;5055769;28;19913;-49
2023/06/04 01:23:33;;;;;;;;;;;;;;;20.15;50.27;102035.84;5054691;28;19920;-57
2023/06/04 01:26:02;;;;;;;;;;;;;;;20.20;50.36;102040.59;5056982;28;19944;-52
2023/06/04 01:28:29;;;;;;;;;;;;;;;20.09;50.77;102041.34;5056407;28;19935;-53
2023/06/04 01:30:56;;;;;;;;;;;;;;;20.08;50.67;102037.81;5037720;28;19924;-53
2023/06/04 01:33:22;;;;;;;;;;;;;;;20.18;50.34;102045.38;5039677;28;19913;-53
2023/06/04 01:35:47;;;;;;;;;;;;;;;20.30;49.85;102042.75;5054436;28;20044;-54
2023/06/04 01:38:13;;;;;;;;;;;;;;;20.19;49.85;102039.75;5041522;28;19933;-55
2023/06/04 01:40:38;;;;;;;;;;;;;;;20.22;49.83;102034.91;5054801;28;19928;-49
2023/06/04 01:43:04;;;;;;;;;;;;;;;20.22;49.78;102037.63;5041471;28;19935;-54
2023/06/04 01:45:30;;;;;;;;;;;;;;;20.16;50.38;102044.78;5055187;28;19924;-55
2023/06/04 01:47:56;;;;;;;;;;;;;;;20.04;50.39;102039.31;5057032;28;19945;-49
2023/06/04 01:50:23;;;;;;;;;;;;;;;20.09;50.31;102030.50;5056867;28;19928;-50
2023/06/04 01:52:48;;;;;;;;;;;;;;;19.98;50.33;102029.38;5036441;28;19912;-49
2023/06/04 01:55:15;;;;;;;;;;;;;;;20.03;50.32;102034.94;5039226;28;19917;-52
2023/06/04 01:57:41;;;;;;;;;;;;;;;19.95;50.37;102030.66;5040896;28;19996;-54
2023/06/04 02:00:09;;;;;;;;;;;;;;;19.99;50.32;102033.75;5040144;28;19912;-52
2023/06/04 02:02:42;;;;;;;;;;;;;;;19.97;50.45;102034.00;5056884;28;19912;-52
2023/06/04 02:05:08;;;;;;;;;;;;;;;19.76;51.02;102035.28;5056348;28;19938;-52
2023/06/04 02:07:35;;;;;;;;;;;;;;;19.75;51.03;102044.47;5058674;28;19913;-53
2023/06/04 02:10:00;;;;;;;;;;;;;;;19.81;50.76;102032.69;5051811;28;19917;-53
2023/06/04 02:12:25;;;;;;;;;;;;;;;19.48;51.95;102039.38;5056533;28;19976;-52
2023/06/04 02:14:51;;;;;;;;;;;;;;;19.55;51.80;102042.00;5056527;28;19920;-54
2023/06/04 02:17:17;;;;;;;;;;;;;;;19.70;51.49;102041.63;5053840;28;19936;-55
2023/06/04 02:19:44;;;;;;;;;;;;;;;19.76;51.14;102048.84;5037512;28;19917;-52
2023/06/04 02:22:13;;;;;;;;;;;;;;;19.63;51.78;102037.13;5038048;28;19920;-54
2023/06/04 02:24:42;;;;;;;;;;;;;;;19.56;51.77;102036.34;5056782;28;19919;-54
2023/06/04 02:27:07;;;;;;;;;;;;;;;19.30;52.70;102034.78;5034017;28;19913;-55
2023/06/04 02:29:33;;;;;;;;;;;;;;;19.55;52.52;102036.59;5054258;28;19916;-51
2023/06/04 02:31:58;;;;;;;;;;;;;;;19.50;52.79;102042.69;5059970;28;19928;-53
2023/06/04 02:34:24;;;;;;;;;;;;;;;19.44;53.54;102043.59;5053801;28;19985;-52
2023/06/04 02:36:50;;;;;;;;;;;;;;;19.48;53.33;102042.09;5038770;28;19923;-55
2023/06/04 02:39:16;;;;;;;;;;;;;;;19.58;53.00;102041.56;5036908;28;19944;-53
2023/06/04 02:41:42;;;;;;;;;;;;;;;19.65;52.55;102039.59;5057322;28;19912;-54
2023/06/04 02:44:07;;;;;;;;;;;;;;;19.63;52.63;102045.25;5041105;28;19927;-52
2023/06/04 02:46:33;;;;;;;;;;;;;;;19.66;52.60;102041.25;5044074;28;19931;-54
2023/06/04 02:48:59;;;;;;;;;;;;;;;19.63;52.69;102047.97;5058022;28;19916;-53
2023/06/04 02:51:24;;;;;;;;;;;;;;;19.63;52.61;102047.97;5059776;28;19913;-49
2023/06/04 02:53:50;;;;;;;;;;;;;;;19.66;52.61;102041.25;5057547;28;19925;-52
2023/06/04 02:56:15;;;;;;;;;;;;;;;19.60;52.72;102042.97;5057942;28;19960;-51
2023/06/04 02:58:51;;;;;;;;;;;;;;;19.56;52.76;102036.34;5049576;28;19913;-53
2023/06/04 03:01:18;;;;;;;;;;;;;;;19.45;53.09;102034.41;5040222;28;19913;-51
2023/06/04 03:03:44;;;;;;;;;;;;;;;19.46;52.99;102030.63;5043679;28;19922;-52
2023/06/04 03:06:10;;;;;;;;;;;;;;;19.25;53.46;102038.16;5057233;28;19920;-50
2023/06/04 03:08:36;;;;;;;;;;;;;;;19.46;53.31;102038.78;5057325;28;19908;-52
2023/06/04 03:11:02;;;;;;;;;;;;;;;19.53;52.84;102038.69;5059056;28;19936;-51
2023/06/04 03:13:27;;;;;;;;;;;;;;;19.43;53.21;102045.47;5039699;28;19935;-52
2023/06/04 03:15:55;;;;;;;;;;;;;;;19.60;52.37;102037.53;5059750;28;19924;-53
2023/06/04 03:18:22;;;;;;;;;;;;;;;19.66;52.18;102043.94;5056982;28;19955;-53
2023/06/04 03:20:48;;;;;;;;;;;;;;;19.38;52.92;102037.19;5059347;28;19920;-54
2023/06/04 03:23:13;;;;;;;;;;;;;;;19.34;53.14;102034.06;5042017;28;19917;-55
2023/06/04 03:25:39;;;;;;;;;;;;;;;19.20;53.43;102032.59;5036976;28;19913;-53
2023/06/04 03:28:05;;;;;;;;;;;;;;;19.19;53.91;102033.63;5059403;28;19913;-54
2023/06/04 03:30:31;;;;;;;;;;;;;;;19.33;53.28;102034.31;5039124;28;19924;-56
2023/06/04 03:33:00;;;;;;;;;;;;;;;19.13;53.92;102031.81;5043907;28;19913;-54
2023/06/04 03:35:25;;;;;;;;;;;;;;;19.19;54.00;102031.75;5059011;28;19921;-51
2023/06/04 03:37:50;;;;;;;;;;;;;;;19.21;53.71;102034.25;5056788;28;19917;-54
2023/06/04 03:40:16;;;;;;;;;;;;;;;19.23;53.82;102037.56;5041737;28;20000;-55
2023/06/04 03:42:43;;;;;;;;;;;;;;;19.08;53.99;102034.34;5039145;28;19972;-55
2023/06/04 03:45:09;;;;;;;;;;;;;;;19.00;54.59;102039.03;5063254;28;19908;-52
2023/06/04 03:47:37;;;;;;;;;;;;;;;19.13;54.32;102037.22;5039999;28;19912;-52
2023/06/04 03:50:04;;;;;;;;;;;;;;;18.88;55.00;102035.34;5038759;28;19923;-49
2023/06/04 03:52:31;;;;;;;;;;;;;;;18.39;56.59;102033.22;5040682;28;19912;-52
2023/06/04 03:54:58;;;;;;;;;;;;;;;18.72;56.17;102037.56;5038917;28;19913;-54
2023/06/04 03:57:24;;;;;;;;;;;;;;;18.81;55.84;102038.13;5038725;28;19936;-57
2023/06/04 03:59:50;;;;;;;;;;;;;;;18.68;56.31;102035.53;5038807;28;20004;-50
2023/06/04 04:02:19;;;;;;;;;;;;;;;18.71;56.36;102041.34;5040796;28;19917;-53
2023/06/04 04:04:45;;;;;;;;;;;;;;;18.60;56.65;102045.59;5041142;28;20014;-54
2023/06/04 04:07:11;;;;;;;;;;;;;;;18.75;56.35;102044.41;5056564;28;19936;-55
2023/06/04 04:09:37;;;;;;;;;;;;;;;18.46;57.50;102044.84;5038412;28;19952;-54
2023/06/04 04:12:03;;;;;;;;;;;;;;;18.67;57.25;102050.94;5040773;28;19925;-53
2023/06/04 04:14:29;;;;;;;;;;;;;;;18.62;57.24;102053.47;5039174;28;19936;-55
2023/06/04 04:16:55;;;;;;;;;;;;;;;18.73;56.93;102055.50;5058750;28;19948;-56
2023/06/04 04:19:21;;;;;;;;;;;;;;;18.77;56.84;102053.16;5041197;28;19913;-53
2023/06/04 04:21:48;;;;;;;;;;;;;;;18.77;56.95;102054.00;5041306;28;19909;-57
2023/06/04 04:24:25;;;;;;;;;;;;;;;18.92;56.72;102058.25;5039480;28;20000;-53
2023/06/04 04:26:54;;;;;;;;;;;;;;;18.93;56.46;102057.22;5036652;28;19921;-54
2023/06/04 04:29:22;;;;;;;;;;;;;;;18.73;57.32;102058.19;5038005;28;19920;-54
2023/06/04 04:31:49;;;;;;;;;;;;;;;18.51;57.86;102046.06;5038295;28;19948;-55
2023/06/04 04:34:14;;;;;;;;;;;;;;;18.55;58.27;102050.00;5019411;28;19913;-51
2023/06/04 04:36:41;;;;;;;;;;;;;;;18.82;57.68;102060.63;5040489;28;19955;-53
2023/06/04 04:39:08;;;;;;;;;;;;;;;18.68;58.42;102043.66;5041153;28;19920;-51
2023/06/04 04:41:34;;;;;;;;;;;;;;;18.81;58.17;102058.97;5030906;28;19920;-52
2023/06/04 04:44:04;;;;;;;;;;;;;;;18.83;57.91;102059.56;5038036;28;19981;-52
2023/06/04 04:46:31;;;;;;;;;;;;;;;18.90;57.78;102055.75;5040219;28;19917;-50
2023/06/04 04:48:57;;;;;;;;;;;;;;;18.99;57.46;102059.06;5037696;28;19935;-52
2023/06/04 04:51:22;;;;;;;;;;;;;;;18.98;57.72;102056.53;5055224;28;19947;-50
2023/06/04 04:53:48;;;;;;;;;;;;;;;18.86;58.07;102053.69;5056979;28;19988;-52
2023/06/04 04:56:14;;;;;;;;;;;;;;;18.84;58.17;102050.38;5039980;28;19924;-51
2023/06/04 04:58:45;;;;;;;;;;;;;;;18.92;58.23;102050.94;5044670;28;20311;-54
2023/06/04 05:01:10;;;;;;;;;;;;;;;19.03;57.68;102038.56;5039164;28;20012;-52
2023/06/04 05:03:37;;;;;;;;;;;;;;;19.04;57.57;102048.38;5036565;28;19913;-52
2023/06/04 05:06:02;;;;;;;;;;;;;;;19.16;57.34;102048.47;5062754;28;19923;-50
2023/06/04 05:08:28;;;;;;;;;;;;;;;19.09;57.54;102047.72;5053041;28;19924;-52
2023/06/04 05:10:53;;;;;;;;;;;;;;;19.08;57.61;102043.34;5038903;28;19928;-54
2023/06/04 05:13:20;;;;;;;;;;;;;;;19.19;57.52;102052.63;5034955;28;19977;-53
2023/06/04 05:15:54;;;;;;;;;;;;;;;19.10;57.58;102053.94;5035335;28;19920;-51
2023/06/04 05:18:28;;;;;;;;;;;;;;;18.89;58.45;102045.13;5041544;28;19953;-54
2023/06/04 05:20:54;;;;;;;;;;;;;;;19.19;57.15;102056.16;5037321;28;19959;-53
2023/06/04 05:23:20;;;;;;;;;;;;;;;19.22;57.19;102056.75;5040216;28;19913;-52
2023/06/04 05:25:48;;;;;;;;;;;;;;;19.41;56.96;102054.91;5040296;28;19907;-51
2023/06/04 05:28:15;;;;;;;;;;;;;;;19.46;56.94;102053.16;5036799;28;19913;-55
2023/06/04 05:30:41;;;;;;;;;;;;;;;19.32;56.68;102054.38;5039834;28;20014;-50
2023/06/04 05:33:17;;;;;;;;;;;;;;;19.30;57.37;102054.56;5037046;28;19980;-50
2023/06/04 05:35:46;;;;;;;;;;;;;;;19.22;58.29;102057.59;5041868;28;19948;-53
2023/06/04 05:38:17;;;;;;;;;;;;;;;19.47;57.95;102054.81;5039370;28;19921;-50
2023/06/04 05:40:43;;;;;;;;;;;;;;;19.65;57.34;102052.34;5039378;28;19954;-48
2023/06/04 05:43:09;;;;;;;;;;;;;;;19.62;57.40;102059.03;5036965;28;20284;-48
2023/06/04 05:45:35;;;;;;;;;;;;;;;19.75;57.32;102063.47;5037489;28;19912;-49
2023/06/04 05:48:00;;;;;;;;;;;;;;;19.66;57.30;102059.41;5043218;28;20020;-54
2023/06/04 05:50:27;;;;;;;;;;;;;;;19.87;56.97;102061.66;5036747;28;19952;-53
2023/06/04 05:52:53;;;;;;;;;;;;;;;19.94;56.55;102063.50;5036867;28;19927;-56
2023/06/04 05:55:21;;;;;;;;;;;;;;;19.88;56.29;102063.31;5038669;28;19920;-53
2023/06/04 05:57:46;;;;;;;;;;;;;;;19.95;56.43;102070.56;5039411;28;19921;-54
2023/06/04 06:00:13;;;;;;;;;;;;;;;19.90;56.68;102074.78;5039205;28;19920;-53
2023/06/04 06:02:43;;;;;;;;;;;;;;;19.97;56.86;102068.47;5056667;28;19934;-53
2023/06/04 06:05:22;;;;;;;;;;;;;;;20.19;56.16;102061.47;5041727;28;19924;-50
2023/06/04 06:07:47;;;;;;;;;;;;;;;20.27;55.76;102063.03;5034900;28;19905;-50
2023/06/04 06:10:13;;;;;;;;;;;;;;;20.30;55.53;102062.56;5058431;28;19921;-51
2023/06/04 06:12:39;;;;;;;;;;;;;;;20.16;56.54;102071.94;5033968;28;19913;-56
2023/06/04 06:15:05;;;;;;;;;;;;;;;20.45;55.97;102074.91;5038174;28;19913;-54
2023/06/04 06:17:32;;;;;;;;;;;;;;;20.46;56.37;102076.56;5041156;28;19905;-51
2023/06/04 06:19:59;;;;;;;;;;;;;;;20.39;55.36;102073.94;5039038;28;19924;-54
2023/06/04 06:22:24;;;;;;;;;;;;;;;20.59;55.58;102070.09;5038785;28;20303;-53
2023/06/04 06:24:50;;;;;;;;;;;;;;;20.59;55.61;102076.34;5056244;28;19912;-55
2023/06/04 06:27:17;;;;;;;;;;;;;;;20.77;55.60;102064.56;5058483;28;19927;-54
2023/06/04 06:29:43;;;;;;;;;;;;;;;20.88;55.03;102070.28;5038826;28;19913;-50
2023/06/04 06:32:09;;;;;;;;;;;;;;;20.78;54.64;102071.66;5035449;28;19979;-53
2023/06/04 06:34:37;;;;;;;;;;;;;;;20.89;54.11;102070.06;5056988;28;19913;-53
2023/06/04 06:37:02;;;;;;;;;;;;;;;20.90;54.44;102077.16;5057983;28;19936;-55
2023/06/04 06:39:28;;;;;;;;;;;;;;;21.00;54.48;102076.56;5057437;28;19920;-52
2023/06/04 06:41:53;;;;;;;;;;;;;;;21.19;54.45;102073.69;5053123;28;19917;-52
2023/06/04 06:44:23;;;;;;;;;;;;;;;21.29;53.66;102084.00;5035765;28;19913;-53
2023/06/04 06:46:49;;;;;;;;;;;;;;;21.11;53.92;102084.94;5053363;28;19920;-53
2023/06/04 06:49:15;;;;;;;;;;;;;;;21.37;52.35;102080.94;5055335;28;19972;-50
2023/06/04 06:51:40;;;;;;;;;;;;;;;21.31;51.60;102085.41;5053553;28;19956;-54
2023/06/04 06:54:08;;;;;;;;;;;;;;;21.40;51.74;102087.78;5058717;28;19972;-57
2023/06/04 06:56:34;;;;;;;;;;;;;;;21.56;52.50;102091.66;5053705;28;19909;-53
2023/06/04 06:58:59;;;;;;;;;;;;;;;21.68;51.16;102088.94;5055827;28;19920;-57
2023/06/04 07:01:25;;;;;;;;;;;;;;;21.84;51.32;102095.53;5056622;28;19913;-55
2023/06/04 07:03:50;;;;;;;;;;;;;;;21.81;51.52;102101.47;5053705;28;19940;-54
2023/06/04 07:06:16;;;;;;;;;;;;;;;22.00;50.67;102096.69;5056137;28;19913;-52
2023/06/04 07:08:42;;;;;;;;;;;;;;;21.77;51.81;102095.69;5053260;28;19913;-55
2023/06/04 07:11:11;;;;;;;;;;;;;;;21.87;50.96;102095.88;5053209;28;19921;-56
2023/06/04 07:13:38;;;;;;;;;;;;;;;22.14;49.93;102094.50;5055504;28;19984;-54
2023/06/04 07:16:03;;;;;;;;;;;;;;;22.27;50.03;102101.53;5058297;28;19913;-54
2023/06/04 07:18:29;;;;;;;;;;;;;;;22.39;49.40;102107.78;5053401;28;19936;-54
2023/06/04 07:20:54;;;;;;;;;;;;;;;22.09;49.17;102108.81;5053257;28;19936;-52
2023/06/04 07:23:20;;;;;;;;;;;;;;;22.42;49.15;102101.81;5055391;28;19996;-56
2023/06/04 07:25:45;;;;;;;;;;;;;;;22.42;48.29;102098.25;5055793;28;19920;-55
2023/06/04 07:28:11;;;;;;;;;;;;;;;22.45;49.29;102106.78;5056260;28;19909;-55
2023/06/04 07:30:37;;;;;;;;;;;;;;;22.54;49.66;102099.06;5059188;28;20000;-53
2023/06/04 07:33:03;;;;;;;;;;;;;;;22.71;47.80;102107.25;5056680;28;19939;-53
2023/06/04 07:35:28;;;;;;;;;;;;;;;22.74;48.39;102103.22;5061531;28;19947;-53
2023/06/04 07:37:54;;;;;;;;;;;;;;;22.99;47.93;102110.97;5037035;28;19940;-52
2023/06/04 07:40:19;;;;;;;;;;;;;;;23.14;48.22;102102.19;5062694;28;19923;-52
2023/06/04 07:42:45;;;;;;;;;;;;;;;23.12;47.69;102109.00;5067316;28;20042;-51
2023/06/04 07:45:11;;;;;;;;;;;;;;;23.30;46.76;102114.22;5061480;28;19912;-55
2023/06/04 07:47:37;;;;;;;;;;;;;;;23.22;47.08;102106.41;5057600;28;19920;-53
2023/06/04 07:50:05;;;;;;;;;;;;;;;23.42;47.17;102110.53;5060757;28;19913;-52
2023/06/04 07:52:31;;;;;;;;;;;;;;;23.52;46.52;102112.59;5062003;28;19997;-56
2023/06/04 07:54:57;;;;;;;;;;;;;;;23.56;46.13;102113.72;5060784;28;19913;-54
2023/06/04 07:57:23;;;;;;;;;;;;;;;23.70;45.19;102120.47;5061902;28;19920;-55
2023/06/04 07:59:49;;;;;;;;;;;;;;;23.77;44.21;102112.91;5061192;28;19947;-55
2023/06/04 08:02:15;;;;;;;;;;;;;;;23.93;44.65;102115.84;5059501;28;19913;-54
2023/06/04 08:04:40;;;;;;;;;;;;;;;23.95;44.55;102115.56;5058491;28;19963;-49
2023/06/04 08:07:06;;;;;;;;;;;;;;;24.12;44.39;102113.63;5060749;28;19961;-54
2023/06/04 08:09:31;;;;;;;;;;;;;;;24.21;43.86;102114.00;5060793;28;19958;-54
2023/06/04 08:11:57;;;;;;;;;;;;;;;24.39;43.64;102120.19;5058317;28;19917;-50
2023/06/04 08:14:24;;;;;;;;;;;;;;;24.48;43.04;102122.19;5057415;28;19913;-52
2023/06/04 08:16:50;;;;;;;;;;;;;;;24.57;42.75;102127.19;5056707;28;19912;-57
2023/06/04 08:19:15;;;;;;;;;;;;;;;24.36;42.08;102126.19;5058201;28;19976;-55
2023/06/04 08:21:41;;;;;;;;;;;;;;;24.74;42.22;102127.91;5059175;28;19920;-56
2023/06/04 08:24:08;;;;;;;;;;;;;;;24.55;42.44;102134.81;5060365;28;19980;-55
2023/06/04 08:26:33;;;;;;;;;;;;;;;24.55;42.66;102132.91;5056112;28;19916;-54
2023/06/04 08:29:02;;;;;;;;;;;;;;;24.64;42.90;102122.31;5055696;28;19912;-55
2023/06/04 08:31:28;;;;;;;;;;;;;;;24.84;42.00;102118.16;5037720;28;19912;-53
2023/06/04 08:33:53;;;;;;;;;;;;;;;24.85;41.07;102117.91;5059232;28;19917;-57
2023/06/04 08:36:19;;;;;;;;;;;;;;;24.98;41.18;102130.31;5062668;28;19984;-57
2023/06/04 08:38:44;;;;;;;;;;;;;;;24.82;41.62;102125.78;5055052;28;19912;-54
2023/06/04 08:41:15;;;;;;;;;;;;;;;25.15;41.77;102127.41;5054734;28;19936;-54
2023/06/04 08:43:43;;;;;;;;;;;;;;;25.37;40.14;102131.91;5059989;28;19916;-53
2023/06/04 08:46:09;;;;;;;;;;;;;;;25.49;40.26;102123.53;5057332;28;19920;-53
2023/06/04 08:48:35;;;;;;;;;;;;;;;25.06;40.13;102135.28;5060259;28;19913;-53
2023/06/04 08:51:02;;;;;;;;;;;;;;;25.48;40.02;102125.44;5054528;28;19924;-53
2023/06/04 08:53:29;;;;;;;;;;;;;;;25.78;39.24;102128.59;5055609;28;19913;-54
2023/06/04 08:55:56;;;;;;;;;;;;;;;25.81;38.46;102141.75;5059588;28;19913;-52
2023/06/04 08:58:21;;;;;;;;;;;;;;;26.03;37.90;102140.72;5054722;28;19945;-51
2023/06/04 09:00:48;;;;;;;;;;;;;;;26.20;37.12;102140.56;5057002;28;20009;-54
2023/06/04 09:03:15;;;;;;;;;;;;;;;26.26;37.52;102138.63;5057205;28;19928;-51
2023/06/04 09:05:42;;;;;;;;;;;;;;;26.35;37.31;102131.53;5041868;28;19912;-55
2023/06/04 09:08:08;;;;;;;;;;;;;;;26.31;37.84;102130.44;5059798;28;19931;-52
2023/06/04 09:10:35;;;;;;;;;;;;;;;26.42;37.22;102143.06;5056736;28;19964;-52
2023/06/04 09:13:02;;;;;;;;;;;;;;;26.29;36.50;102140.81;5059472;28;19973;-54
2023/06/04 09:15:28;;;;;;;;;;;;;;;26.63;36.40;102141.16;5061591;28;19912;-55
2023/06/04 09:17:53;;;;;;;;;;;;;;;26.99;36.02;102140.38;5040119;28;19924;-56
2023/06/04 09:20:19;;;;;;;;;;;;;;;26.76;35.58;102148.03;5054454;28;19917;-57
2023/06/04 09:22:45;;;;;;;;;;;;;;;26.84;35.46;102143.91;5054631;28;19952;-55
2023/06/04 09:25:18;;;;;;;;;;;;;;;27.23;34.68;102145.28;5061507;28;19913;-53
2023/06/04 09:27:44;;;;;;;;;;;;;;;27.44;34.82;102139.72;5059936;28;19972;-55
2023/06/04 09:30:10;;;;;;;;;;;;;;;27.45;34.08;102139.44;5059991;28;19937;-52
2023/06/04 09:32:36;;;;;;;;;;;;;;;27.58;33.92;102148.25;5055660;28;19981;-56
2023/06/04 09:35:09;;;;;;;;;;;;;;;27.97;33.08;102141.22;5056621;28;19920;-58
2023/06/04 09:37:35;;;;;;;;;;;;;;;28.62;32.29;102154.03;5060449;28;19923;-54
2023/06/04 09:40:01;;;;;;;;;;;;;;;29.09;31.76;102145.41;5058155;28;19936;-51
2023/06/04 09:42:27;;;;;;;;;;;;;;;29.61;31.55;102143.75;5056002;28;19913;-53
2023/06/04 09:44:53;;;;;;;;;;;;;;;30.02;30.59;102152.66;5054649;28;19923;-57
2023/06/04 09:47:19;;;;;;;;;;;;;;;30.73;30.09;102152.69;5056094;28;19980;-56
2023/06/04 09:49:45;;;;;;;;;;;;;;;31.36;29.39;102171.75;5055047;28;19919;-56
2023/06/04 09:52:12;;;;;;;;;;;;;;;31.76;29.35;102151.88;5058219;28;19921;-56
2023/06/04 09:54:38;;;;;;;;;;;;;;;31.91;29.59;102153.50;5058672;28;19912;-55
2023/06/04 09:57:05;;;;;;;;;;;;;;;32.26;28.73;102158.53;5042486;28;19913;-58
2023/06/04 09:59:36;;;;;;;;;;;;;;;33.04;27.64;102161.09;5056000;28;19924;-57
2023/06/04 10:02:03;;;;;;;;;;;;;;;33.36;26.30;102160.25;5037259;28;19913;-56
2023/06/04 10:04:30;;;;;;;;;;;;;;;33.99;23.97;102160.13;5054625;28;19913;-56
2023/06/04 10:06:56;;;;;;;;;;;;;;;34.56;25.30;102158.31;5057518;28;19931;-57
2023/06/04 10:09:23;;;;;;;;;;;;;;;35.11;23.61;102156.72;5057628;28;19917;-57
2023/06/04 10:11:55;;;;;;;;;;;;;;;35.84;22.95;102156.84;5053768;28;19980;-56
2023/06/04 10:14:40;;;;;;;;;;;;;;;36.09;22.60;102165.34;5054074;28;20189;-53
2023/06/04 10:17:07;;;;;;;;;;;;;;;36.27;22.63;102157.69;5055027;28;19923;-56
2023/06/04 10:19:34;;;;;;;;;;;;;;;36.71;21.73;102160.88;5058704;28;19920;-55
2023/06/04 10:22:00;;;;;;;;;;;;;;;36.88;21.94;102156.25;5055848;28;19917;-57
2023/06/04 10:24:26;;;;;;;;;;;;;;;36.66;21.92;102166.66;5034217;28;19980;-57
2023/06/04 10:26:53;;;;;;;;;;;;;;;36.52;22.69;102160.59;5055881;28;19923;-55
2023/06/04 10:29:19;;;;;;;;;;;;;;;36.65;22.06;102162.25;5058119;28;19972;-53
2023/06/04 10:31:45;;;;;;;;;;;;;;;37.19;21.07;102162.47;5054502;28;19924;-56
2023/06/04 10:34:11;;;;;;;;;;;;;;;37.70;20.96;102162.91;5055914;28;19976;-52
2023/06/04 10:36:44;;;;;;;;;;;;;;;38.37;20.38;102167.28;5057395;28;19913;-53
2023/06/04 10:39:10;;;;;;;;;;;;;;;38.85;19.74;102163.78;5054627;28;19919;-52
2023/06/04 10:41:35;;;;;;;;;;;;;;;38.85;19.99;102167.38;5057725;28;19948;-53
2023/06/04 10:44:01;;;;;;;;;;;;;;;38.82;19.75;102168.09;5057116;28;19920;-54
2023/06/04 10:46:36;;;;;;;;;;;;;;;38.67;19.93;102160.53;5055557;28;20009;-56
2023/06/04 10:49:01;;;;;;;;;;;;;;;38.38;20.24;102170.88;5055897;28;19992;-54
2023/06/04 10:51:31;;;;;;;;;;;;;;;39.23;19.27;102156.75;5053972;28;19917;-54
2023/06/04 10:53:57;;;;;;;;;;;;;;;39.60;18.93;102158.41;5056891;28;19920;-52
2023/06/04 10:56:33;;;;;;;;;;;;;;;39.74;19.25;102155.13;5055139;28;19919;-55
2023/06/04 10:58:59;;;;;;;;;;;;;;;39.97;18.91;102157.22;5055465;28;19913;-54
2023/06/04 11:01:28;;;;;;;;;;;;;;;39.78;19.38;102150.41;5057842;28;19915;-53
2023/06/04 11:03:54;;;;;;;;;;;;;;;39.98;18.88;102161.66;5059307;28;19913;-57
2023/06/04 11:06:21;;;;;;;;;;;;;;;40.24;18.36;102160.94;5062794;28;19924;-57
2023/06/04 11:08:46;;;;;;;;;;;;;;;40.69;17.67;102164.22;5061159;28;19976;-59
2023/06/04 11:11:13;;;;;;;;;;;;;;;40.90;18.16;102160.19;5058647;28;19924;-54
2023/06/04 11:13:38;;;;;;;;;;;;;;;40.65;18.05;102160.56;5060619;28;19913;-53
2023/06/04 11:16:14;;;;;;;;;;;;;;;41.00;18.25;102156.75;5060912;28;19919;-58
2023/06/04 11:18:40;;;;;;;;;;;;;;;41.10;17.30;102160.13;5062239;28;19912;-53
2023/06/04 11:21:05;;;;;;;;;;;;;;;41.53;16.84;102155.19;5056921;28;19948;-55
2023/06/04 11:23:32;;;;;;;;;;;;;;;41.80;16.42;102157.97;5058677;28;19921;-58
2023/06/04 11:25:58;;;;;;;;;;;;;;;42.34;16.13;102160.59;5062092;28;19920;-57
2023/06/04 11:28:24;;;;;;;;;;;;;;;42.41;16.20;102160.66;5060863;28;19921;-58
2023/06/04 11:31:02;;;;;;;;;;;;;;;43.01;15.64;102160.03;5058720;28;19991;-58
2023/06/04 11:33:28;;;;;;;;;;;;;;;43.33;15.94;102153.81;5060623;28;19913;-57
2023/06/04 11:35:54;;;;;;;;;;;;;;;43.21;16.42;102152.13;5059012;28;19917;-59
2023/06/04 11:38:19;;;;;;;;;;;;;;;43.50;15.60;102147.50;5056720;28;19921;-59
2023/06/04 11:40:54;;;;;;;;;;;;;;;43.28;16.12;102147.34;5059143;28;19939;-58
2023/06/04 11:43:19;;;;;;;;;;;;;;;43.74;15.81;102147.25;5056560;28;19917;-58
2023/06/04 11:45:45;;;;;;;;;;;;;;;43.91;15.27;102145.69;5058804;28;19959;-57
2023/06/04 11:48:10;;;;;;;;;;;;;;;43.63;15.68;102141.53;5058725;28;19913;-56
2023/06/04 11:50:36;;;;;;;;;;;;;;;44.65;15.37;102145.47;5063409;28;19916;-58
2023/06/04 11:53:02;;;;;;;;;;;;;;;44.69;15.76;102135.78;5062123;28;19972;-58
2023/06/04 11:55:28;;;;;;;;;;;;;;;44.78;14.55;102134.56;5061552;28;19921;-57
2023/06/04 11:57:54;;;;;;;;;;;;;;;44.80;15.03;102135.75;5059226;28;19913;-59
2023/06/04 12:00:19;;;;;;;;;;;;;;;44.75;15.73;102127.72;5061334;28;19913;-57
2023/06/04 12:02:55;;;;;;;;;;;;;;;44.99;15.44;102124.50;5056519;28;19935;-59
2023/06/04 12:05:22;;;;;;;;;;;;;;;45.67;15.44;102129.13;5054335;28;19968;-58
2023/06/04 12:07:50;;;;;;;;;;;;;;;46.03;14.21;102125.34;5065273;28;19913;-58
2023/06/04 12:10:17;;;;;;;;;;;;;;;46.22;14.70;102127.63;5058204;28;19917;-58
2023/06/04 12:12:43;;;;;;;;;;;;;;;46.21;14.33;102125.25;5058869;28;19939;-58
2023/06/04 12:15:09;;;;;;;;;;;;;;;46.35;13.84;102127.16;5063450;28;19913;-58
2023/06/04 12:17:36;;;;;;;;;;;;;;;46.75;14.22;102122.00;5058076;28;19972;-58
2023/06/04 12:20:01;;;;;;;;;;;;;;;47.06;14.06;102126.94;5062060;28;19913;-59
2023/06/04 12:22:27;;;;;;;;;;;;;;;46.28;14.27;102122.34;5060208;28;19971;-58
2023/06/04 12:24:57;;;;;;;;;;;;;;;46.54;14.48;102120.16;5058384;28;19936;-59
2023/06/04 12:27:25;;;;;;;;;;;;;;;46.52;14.00;102126.25;5058475;28;19920;-59
2023/06/04 12:29:55;;;;;;;;;;;;;;;46.76;14.09;102122.78;5054215;28;19913;-57
2023/06/04 12:32:20;;;;;;;;;;;;;;;46.98;13.91;102128.25;5053467;28;19938;-60
2023/06/04 12:34:48;;;;;;;;;;;;;;;46.66;14.22;102122.47;5060637;28;19925;-58